Time;durP1;ratioP1;P1;durP2;ratioP2;P2;SDS_P1;SDS_P2;PMS_P1;PMS_P2;Temp;Humidity;BMP_temperature;BMP_pressure;BME280_temperature;BME280_humidity;BME280_pressure;Samples;Min_cycle;Max_cycle;Signal;HPM_P1;HPM_P2
2020/12/27 00:00:37;;;;;;;5.37;4.70;;;1.40;99.90;;;;;;5094763;28;20406;-64
2020/12/27 00:03:03;;;;;;;6.57;5.50;;;1.30;99.90;;;;;;5095943;28;20191;-65
2020/12/27 00:05:29;;;;;;;6.90;4.93;;;1.30;99.90;;;;;;5095820;28;20159;-65
2020/12/27 00:07:54;;;;;;;6.27;4.90;;;1.30;99.90;;;;;;5087414;28;20195;-66
2020/12/27 00:10:20;;;;;;;4.97;4.40;;;1.20;99.90;;;;;;5073794;28;20516;-64
2020/12/27 00:12:45;;;;;;;7.00;5.10;;;1.20;99.90;;;;;;5074115;28;20173;-64
2020/12/27 00:15:11;;;;;;;6.67;5.07;;;1.10;99.90;;;;;;5073780;28;20245;-64
2020/12/27 00:17:37;;;;;;;5.17;4.67;;;1.20;99.90;;;;;;5073899;28;20179;-64
2020/12/27 00:20:06;;;;;;;5.63;4.67;;;1.20;99.90;;;;;;5073627;28;20233;-65
2020/12/27 00:22:31;;;;;;;5.27;4.57;;;1.20;99.90;;;;;;5073624;28;20188;-65
2020/12/27 00:24:57;;;;;;;5.40;4.80;;;1.20;99.90;;;;;;5073616;28;20410;-65
2020/12/27 00:27:22;;;;;;;4.77;4.20;;;1.20;99.90;;;;;;5073364;28;20169;-65
2020/12/27 00:29:48;;;;;;;5.50;4.47;;;1.20;99.90;;;;;;5073795;28;20190;-65
2020/12/27 00:32:14;;;;;;;4.87;4.37;;;1.30;99.90;;;;;;5073850;28;20203;-64
2020/12/27 00:34:39;;;;;;;5.77;4.80;;;1.30;99.90;;;;;;5074155;28;20160;-64
2020/12/27 00:37:05;;;;;;;5.40;4.70;;;1.30;99.90;;;;;;5073756;28;20182;-63
2020/12/27 00:39:30;;;;;;;4.70;4.13;;;1.30;99.90;;;;;;5073247;28;20196;-65
2020/12/27 00:42:00;;;;;;;5.43;4.20;;;1.10;99.90;;;;;;5073203;28;20161;-65
2020/12/27 00:44:26;;;;;;;7.57;5.20;;;1.00;99.90;;;;;;5073405;28;20229;-65
2020/12/27 00:46:52;;;;;;;5.53;4.50;;;1.10;99.90;;;;;;5078197;28;20942;-66
2020/12/27 00:49:19;;;;;;;4.37;3.97;;;1.10;99.90;;;;;;5093492;28;20437;-65
2020/12/27 00:51:45;;;;;;;4.73;4.20;;;1.10;99.90;;;;;;5093590;28;20399;-65
2020/12/27 00:54:11;;;;;;;5.70;5.10;;;1.10;99.90;;;;;;5093300;28;20408;-65
2020/12/27 00:56:37;;;;;;;5.33;4.40;;;1.10;99.90;;;;;;5093446;28;20220;-65
2020/12/27 00:59:03;;;;;;;5.97;4.23;;;1.00;99.90;;;;;;5093293;28;20247;-65
2020/12/27 01:01:29;;;;;;;6.53;4.90;;;1.00;99.90;;;;;;5093638;28;20276;-65
2020/12/27 01:03:54;;;;;;;5.20;4.70;;;0.90;99.90;;;;;;5093258;28;20458;-65
2020/12/27 01:06:27;;;;;;;5.07;4.50;;;0.90;99.90;;;;;;5093139;28;20899;-64
2020/12/27 01:08:54;;;;;;;5.87;5.07;;;0.90;99.90;;;;;;5079530;28;20681;-64
2020/12/27 01:11:19;;;;;;;7.77;4.90;;;0.90;99.90;;;;;;5109242;28;20407;-64
2020/12/27 01:13:45;;;;;;;6.70;5.10;;;0.90;99.90;;;;;;5113685;28;20406;-64
2020/12/27 01:16:12;;;;;;;6.30;4.97;;;0.90;99.90;;;;;;5113656;28;20414;-64
2020/12/27 01:18:44;;;;;;;6.60;4.77;;;0.80;99.90;;;;;;5113766;28;20199;-64
2020/12/27 01:21:10;;;;;;;6.63;5.23;;;0.90;99.90;;;;;;5113967;28;20387;-65
2020/12/27 01:23:35;;;;;;;6.10;5.50;;;0.90;99.90;;;;;;5113175;28;21038;-65
2020/12/27 01:26:01;;;;;;;5.47;4.87;;;0.80;99.90;;;;;;5113183;28;20170;-64
2020/12/27 01:28:26;;;;;;;5.80;4.60;;;0.80;99.90;;;;;;5113495;28;20194;-65
2020/12/27 01:30:52;;;;;;;6.60;4.63;;;0.90;99.90;;;;;;5113434;28;20162;-65
2020/12/27 01:33:18;;;;;;;6.00;5.10;;;1.00;99.90;;;;;;5113669;28;20201;-64
2020/12/27 01:35:45;;;;;;;5.30;4.80;;;1.00;99.90;;;;;;5114043;28;20206;-64
2020/12/27 01:38:11;;;;;;;6.03;5.37;;;1.00;99.90;;;;;;5097844;28;20191;-65
2020/12/27 01:40:37;;;;;;;8.07;5.50;;;0.90;99.90;;;;;;5072830;28;20494;-65
2020/12/27 01:43:03;;;;;;;7.13;5.50;;;1.00;99.90;;;;;;5090369;28;20531;-65
2020/12/27 01:45:29;;;;;;;5.33;4.43;;;1.10;99.90;;;;;;5093297;28;20687;-65
2020/12/27 01:47:55;;;;;;;5.43;4.90;;;1.10;99.90;;;;;;5092840;28;20215;-66
2020/12/27 01:50:21;;;;;;;5.47;4.90;;;1.10;99.90;;;;;;5092833;28;20450;-65
2020/12/27 01:52:47;;;;;;;8.57;5.23;;;1.10;99.90;;;;;;5092609;28;20817;-65
2020/12/27 01:55:14;;;;;;;5.80;5.20;;;1.20;99.90;;;;;;5092883;28;20642;-65
2020/12/27 01:58:19;;;;;;;5.80;5.20;;;1.20;99.90;;;;;;5074101;28;20428;-65
2020/12/27 02:00:45;;;;;;;5.50;4.87;;;1.10;99.90;;;;;;5072855;28;20411;-65
2020/12/27 02:03:13;;;;;;;8.43;4.97;;;1.10;99.90;;;;;;5072781;28;20796;-64
2020/12/27 02:05:49;;;;;;;8.07;4.80;;;1.10;99.90;;;;;;5072811;28;20837;-65
2020/12/27 02:08:18;;;;;;;7.60;5.43;;;0.90;99.90;;;;;;5077301;28;20510;-65
2020/12/27 02:10:45;;;;;;;6.27;5.33;;;0.90;99.90;;;;;;5094410;28;20906;-65
2020/12/27 02:13:10;;;;;;;6.20;4.80;;;0.80;99.90;;;;;;5096003;28;20456;-65
2020/12/27 02:15:36;;;;;;;5.83;5.23;;;0.90;99.90;;;;;;5096203;28;20407;-65
2020/12/27 02:18:02;;;;;;;7.27;5.37;;;1.00;99.90;;;;;;5096341;28;20198;-65
2020/12/27 02:20:28;;;;;;;10.03;5.77;;;0.80;99.90;;;;;;5096140;28;20217;-65
2020/12/27 02:22:53;;;;;;;4.70;4.30;;;0.60;99.90;;;;;;5094690;28;20540;-64
2020/12/27 02:25:19;;;;;;;6.73;4.93;;;0.60;99.90;;;;;;5096166;28;20551;-65
2020/12/27 02:27:45;;;;;;;5.67;5.07;;;0.70;99.90;;;;;;5091042;28;20177;-64
2020/12/27 02:30:10;;;;;;;5.37;4.87;;;0.70;99.90;;;;;;5075796;28;20170;-65
2020/12/27 02:32:36;;;;;;;5.90;4.90;;;0.70;99.90;;;;;;5075771;28;20174;-65
2020/12/27 02:35:02;;;;;;;7.50;5.23;;;0.80;99.90;;;;;;5075964;28;20172;-65
2020/12/27 02:37:28;;;;;;;5.10;4.60;;;0.90;99.90;;;;;;5074882;28;20170;-65
2020/12/27 02:39:54;;;;;;;5.30;4.60;;;0.90;99.90;;;;;;5075612;28;20990;-64
2020/12/27 02:42:20;;;;;;;6.17;5.00;;;0.90;99.90;;;;;;5086834;28;20249;-66
2020/12/27 02:47:26;;;;;;;7.27;4.83;;;0.90;99.90;;;;;;5096484;28;20182;-64
2020/12/27 02:49:52;;;;;;;6.17;4.60;;;0.90;99.90;;;;;;5095640;28;20451;-65
2020/12/27 02:52:18;;;;;;;6.17;5.57;;;0.70;99.90;;;;;;5095967;28;20235;-65
2020/12/27 02:54:43;;;;;;;5.50;4.73;;;0.60;99.90;;;;;;5095907;28;20522;-65
2020/12/27 02:57:09;;;;;;;5.70;4.83;;;0.60;99.90;;;;;;5095269;28;20457;-65
2020/12/27 02:59:35;;;;;;;8.50;6.80;;;0.60;99.90;;;;;;5095443;28;20674;-65
2020/12/27 03:02:00;;;;;;;6.20;5.20;;;0.60;99.90;;;;;;5094319;28;20166;-65
2020/12/27 03:04:26;;;;;;;7.93;5.70;;;0.70;99.90;;;;;;5095415;28;20272;-65
2020/12/27 03:06:51;;;;;;;6.83;5.87;;;0.80;99.90;;;;;;5085405;28;20185;-65
2020/12/27 03:09:17;;;;;;;6.50;5.30;;;0.70;99.90;;;;;;5075399;28;20186;-65
2020/12/27 03:11:43;;;;;;;6.27;5.27;;;0.80;99.90;;;;;;5074769;28;20540;-65
2020/12/27 03:14:09;;;;;;;7.87;5.73;;;0.90;99.90;;;;;;5089719;28;20213;-64
2020/12/27 03:16:34;;;;;;;5.57;4.63;;;0.80;99.90;;;;;;5095515;28;20166;-65
2020/12/27 03:19:00;;;;;;;6.77;5.73;;;0.80;99.90;;;;;;5095218;28;20431;-65
2020/12/27 03:21:25;;;;;;;6.30;5.70;;;0.80;99.90;;;;;;5095064;28;20170;-65
2020/12/27 03:23:51;;;;;;;8.40;5.80;;;0.70;99.90;;;;;;5095535;28;20625;-64
2020/12/27 03:26:17;;;;;;;9.13;5.53;;;0.80;99.90;;;;;;5095077;28;20534;-65
2020/12/27 03:28:42;;;;;;;7.30;5.07;;;0.80;99.90;;;;;;5094817;28;20224;-65
2020/12/27 03:31:08;;;;;;;6.43;4.97;;;0.90;99.90;;;;;;5094856;28;20166;-65
2020/12/27 03:33:34;;;;;;;6.33;5.70;;;0.80;99.90;;;;;;5094916;28;20576;-65
2020/12/27 03:35:59;;;;;;;5.93;5.03;;;0.80;99.90;;;;;;5092381;28;20252;-64
2020/12/27 03:38:25;;;;;;;7.80;4.63;;;0.80;99.90;;;;;;5074869;28;20240;-65
2020/12/27 03:40:51;;;;;;;5.33;4.70;;;0.80;99.90;;;;;;5083631;28;20179;-65
2020/12/27 03:43:16;;;;;;;7.17;4.80;;;0.90;99.90;;;;;;5076790;28;20233;-65
2020/12/27 03:45:42;;;;;;;6.83;5.53;;;0.80;99.90;;;;;;5074658;28;20560;-65
2020/12/27 03:48:08;;;;;;;6.33;5.10;;;0.80;99.90;;;;;;5074628;28;20546;-65
2020/12/27 03:50:34;;;;;;;5.83;4.77;;;0.80;99.90;;;;;;5074954;28;20256;-65
2020/12/27 03:53:00;;;;;;;6.40;5.70;;;0.90;99.90;;;;;;5074792;28;20918;-65
2020/12/27 03:55:25;;;;;;;6.10;5.50;;;0.90;99.90;;;;;;5075053;28;20171;-65
2020/12/27 03:57:51;;;;;;;5.43;4.77;;;0.90;99.90;;;;;;5074152;28;20175;-65
2020/12/27 04:00:17;;;;;;;9.87;5.87;;;0.80;99.90;;;;;;5074387;28;20182;-65
2020/12/27 04:02:43;;;;;;;6.60;5.63;;;0.80;99.90;;;;;;5074363;28;20195;-65
2020/12/27 04:05:09;;;;;;;6.50;4.83;;;0.80;99.90;;;;;;5074878;28;20754;-65
2020/12/27 04:07:35;;;;;;;7.50;6.23;;;0.70;99.90;;;;;;5073610;28;20188;-65
2020/12/27 04:10:00;;;;;;;7.07;5.47;;;0.70;99.90;;;;;;5074250;28;20569;-65
2020/12/27 04:12:27;;;;;;;5.27;4.77;;;0.80;99.90;;;;;;5073937;28;20503;-64
2020/12/27 04:14:52;;;;;;;7.43;6.13;;;0.70;99.90;;;;;;5074310;28;20210;-65
2020/12/27 04:17:18;;;;;;;5.27;4.77;;;0.80;99.90;;;;;;5074173;28;20897;-65
2020/12/27 04:19:44;;;;;;;8.00;5.50;;;0.90;99.90;;;;;;5073765;28;20954;-65
2020/12/27 04:22:10;;;;;;;5.30;4.77;;;0.90;99.90;;;;;;5073827;28;20417;-65
2020/12/27 04:24:35;;;;;;;6.03;5.37;;;0.70;99.90;;;;;;5073674;28;20538;-65
2020/12/27 04:27:01;;;;;;;7.07;5.33;;;0.50;99.90;;;;;;5073578;28;20208;-65
2020/12/27 04:29:27;;;;;;;6.40;4.80;;;0.70;99.90;;;;;;5073800;28;20187;-65
2020/12/27 04:31:53;;;;;;;5.20;4.70;;;0.70;99.90;;;;;;5074029;28;20159;-64
2020/12/27 04:34:19;;;;;;;5.87;5.30;;;0.60;99.90;;;;;;5073105;28;20662;-65
2020/12/27 04:36:45;;;;;;;5.30;4.80;;;0.60;99.90;;;;;;5073102;28;20409;-65
2020/12/27 04:39:11;;;;;;;5.23;4.40;;;0.60;99.90;;;;;;5073656;28;20424;-64
2020/12/27 04:41:37;;;;;;;6.60;4.73;;;0.70;99.90;;;;;;5073101;28;20460;-65
2020/12/27 04:44:03;;;;;;;5.60;4.80;;;0.60;99.90;;;;;;5073307;28;20248;-65
2020/12/27 04:46:30;;;;;;;6.80;4.43;;;0.70;99.90;;;;;;5073332;28;20404;-64
2020/12/27 04:48:57;;;;;;;6.77;5.00;;;0.50;99.90;;;;;;5073219;28;20430;-64
2020/12/27 04:51:25;;;;;;;6.70;5.63;;;0.50;99.90;;;;;;5073153;28;20885;-65
2020/12/27 04:53:51;;;;;;;6.23;5.33;;;0.50;99.90;;;;;;5073606;28;20415;-65
2020/12/27 04:56:19;;;;;;;8.40;5.90;;;0.50;99.90;;;;;;5073408;28;20788;-64
2020/12/27 04:58:45;;;;;;;5.93;5.33;;;0.40;99.90;;;;;;5072934;28;20471;-64
2020/12/27 05:01:11;;;;;;;5.50;5.00;;;0.40;99.90;;;;;;5073247;28;20432;-65
2020/12/27 05:03:36;;;;;;;5.50;4.70;;;0.40;99.90;;;;;;5073423;28;20440;-65
2020/12/27 05:06:02;;;;;;;6.43;5.80;;;0.40;99.90;;;;;;5073227;28;20178;-65
2020/12/27 05:08:27;;;;;;;5.60;4.90;;;0.20;99.90;;;;;;5089340;28;20185;-65
2020/12/27 05:10:53;;;;;;;10.07;5.70;;;0.40;99.90;;;;;;5093310;28;20177;-64
2020/12/27 05:13:19;;;;;;;6.40;5.80;;;0.40;99.90;;;;;;5093015;28;20171;-65
2020/12/27 05:15:45;;;;;;;6.73;5.50;;;0.50;99.90;;;;;;5093349;28;20166;-64
2020/12/27 05:18:11;;;;;;;6.40;5.60;;;0.40;99.90;;;;;;5093350;28;20428;-65
2020/12/27 05:20:43;;;;;;;5.97;5.43;;;0.30;99.90;;;;;;5093027;28;20438;-65
2020/12/27 05:23:09;;;;;;;5.60;5.00;;;0.30;99.90;;;;;;5093710;28;20484;-65
2020/12/27 05:25:40;;;;;;;5.80;5.23;;;0.30;99.90;;;;;;5093155;28;20408;-64
2020/12/27 05:28:08;;;;;;;7.07;6.37;;;0.20;99.90;;;;;;5093121;28;20422;-65
2020/12/27 05:30:35;;;;;;;6.30;5.50;;;0.30;99.90;;;;;;5093715;28;20815;-64
2020/12/27 05:33:09;;;;;;;6.87;5.90;;;0.30;99.90;;;;;;5093280;28;20400;-65
2020/12/27 05:35:34;;;;;;;8.17;5.20;;;0.20;99.90;;;;;;5093337;28;20434;-64
2020/12/27 05:38:00;;;;;;;6.40;5.60;;;0.40;99.90;;;;;;5073694;28;20801;-64
2020/12/27 05:40:26;;;;;;;6.13;5.53;;;0.50;99.90;;;;;;5073074;28;20174;-65
2020/12/27 05:42:51;;;;;;;9.57;6.37;;;0.50;99.90;;;;;;5072672;28;20604;-64
2020/12/27 05:45:19;;;;;;;7.10;6.40;;;0.40;99.90;;;;;;5074097;28;20174;-63
2020/12/27 05:47:46;;;;;;;8.20;6.00;;;0.30;99.90;;;;;;5076706;28;20207;-64
2020/12/27 05:50:14;;;;;;;6.10;5.50;;;0.30;99.90;;;;;;5080494;28;20401;-64
2020/12/27 05:52:48;;;;;;;7.83;5.97;;;0.20;99.90;;;;;;5079404;28;20406;-64
2020/12/27 05:55:19;;;;;;;6.53;5.33;;;0.30;99.90;;;;;;5077924;28;20403;-64
2020/12/27 05:57:53;;;;;;;7.37;6.67;;;0.40;99.90;;;;;;5076850;28;20857;-65
2020/12/27 06:00:24;;;;;;;8.70;6.27;;;0.50;99.90;;;;;;5076933;28;20744;-65
2020/12/27 06:02:58;;;;;;;6.67;5.97;;;0.50;99.90;;;;;;5076987;28;20511;-65
2020/12/27 06:05:39;;;;;;;6.50;5.80;;;0.40;99.90;;;;;;5076744;28;20744;-64
2020/12/27 06:08:29;;;;;;;7.53;5.10;;;0.40;99.90;;;;;;5076191;28;20431;-64
2020/12/27 06:10:58;;;;;;;6.43;5.83;;;0.40;99.90;;;;;;5076526;28;20426;-64
2020/12/27 06:13:30;;;;;;;6.67;5.93;;;0.60;99.90;;;;;;5075937;28;20423;-64
2020/12/27 06:15:57;;;;;;;6.20;5.60;;;0.50;99.90;;;;;;5076154;28;20407;-64
2020/12/27 06:18:29;;;;;;;7.50;5.80;;;0.50;99.90;;;;;;5075987;28;20424;-65
2020/12/27 06:21:07;;;;;;;6.67;5.47;;;0.60;99.90;;;;;;5076729;28;20924;-64
2020/12/27 06:23:34;;;;;;;7.63;5.50;;;0.60;99.90;;;;;;5076685;28;20438;-64
2020/12/27 06:26:01;;;;;;;7.50;5.80;;;0.60;99.90;;;;;;5076159;28;20461;-63
2020/12/27 06:28:31;;;;;;;5.17;4.67;;;0.50;99.90;;;;;;5075925;28;20417;-65
2020/12/27 06:31:02;;;;;;;6.30;5.70;;;0.70;99.90;;;;;;5076501;28;20893;-64
2020/12/27 06:33:34;;;;;;;7.97;5.57;;;0.70;99.90;;;;;;5082052;28;20863;-64
2020/12/27 06:35:59;;;;;;;7.93;5.80;;;0.60;99.90;;;;;;5093191;28;20449;-64
2020/12/27 06:38:25;;;;;;;7.80;6.17;;;0.70;99.90;;;;;;5080238;28;20470;-65
2020/12/27 06:41:05;;;;;;;7.27;5.70;;;0.80;99.90;;;;;;5096307;28;20171;-65
2020/12/27 06:43:40;;;;;;;6.27;5.67;;;0.80;99.90;;;;;;5095801;28;20443;-65
2020/12/27 06:46:24;;;;;;;6.87;6.17;;;0.90;99.90;;;;;;5096238;28;20388;-64
2020/12/27 06:49:06;;;;;;;6.03;5.37;;;0.80;99.90;;;;;;5095786;28;20423;-65
2020/12/27 06:51:43;;;;;;;6.00;5.40;;;0.90;99.90;;;;;;5095720;28;20397;-65
2020/12/27 06:54:09;;;;;;;5.90;4.80;;;0.90;99.90;;;;;;5095955;28;20493;-64
2020/12/27 06:56:40;;;;;;;7.40;6.13;;;1.00;99.90;;;;;;5095035;28;20404;-65
2020/12/27 06:59:06;;;;;;;6.30;5.13;;;1.00;99.90;;;;;;5075594;28;20446;-64
2020/12/27 07:01:32;;;;;;;6.70;5.60;;;1.00;99.90;;;;;;5075418;28;20928;-65
2020/12/27 07:04:11;;;;;;;6.63;5.87;;;1.10;99.90;;;;;;5073944;28;20191;-65
2020/12/27 07:06:44;;;;;;;6.77;6.07;;;1.20;99.90;;;;;;5075409;28;20983;-64
2020/12/27 07:09:10;;;;;;;5.30;4.80;;;1.20;99.90;;;;;;5085243;28;20413;-64
2020/12/27 07:11:35;;;;;;;6.17;5.40;;;1.10;99.90;;;;;;5095241;28;20437;-64
2020/12/27 07:14:02;;;;;;;7.00;5.90;;;0.90;99.90;;;;;;5095236;28;20180;-64
2020/12/27 07:16:50;;;;;;;6.90;4.97;;;0.90;99.90;;;;;;5095117;28;20183;-64
2020/12/27 07:19:17;;;;;;;6.77;5.80;;;0.90;99.90;;;;;;5095104;28;20444;-65
2020/12/27 07:21:45;;;;;;;7.93;5.40;;;0.90;99.90;;;;;;5095116;28;20400;-65
2020/12/27 07:24:11;;;;;;;5.93;5.23;;;1.00;99.90;;;;;;5094948;28;20498;-65
2020/12/27 07:26:44;;;;;;;5.50;4.60;;;1.00;99.90;;;;;;5095093;28;20484;-64
2020/12/27 07:29:11;;;;;;;5.63;5.13;;;1.00;99.90;;;;;;5075771;28;20434;-65
2020/12/27 07:31:39;;;;;;;8.23;5.97;;;1.00;99.90;;;;;;5074821;28;20894;-65
2020/12/27 07:34:06;;;;;;;8.00;5.53;;;0.90;99.90;;;;;;5075333;28;20482;-65
2020/12/27 07:36:34;;;;;;;8.10;5.43;;;0.90;99.90;;;;;;5074884;28;20411;-64
2020/12/27 07:39:07;;;;;;;7.50;5.70;;;0.90;99.90;;;;;;5074849;28;21026;-64
2020/12/27 07:41:43;;;;;;;7.83;5.27;;;0.80;99.90;;;;;;5075174;28;20427;-65
2020/12/27 07:44:17;;;;;;;7.60;4.97;;;0.70;99.90;;;;;;5074568;28;20498;-64
2020/12/27 07:46:43;;;;;;;7.20;5.37;;;0.70;99.90;;;;;;5074793;28;20773;-65
2020/12/27 07:49:13;;;;;;;6.03;4.87;;;0.70;99.90;;;;;;5074449;28;20425;-65
2020/12/27 07:51:39;;;;;;;6.80;5.10;;;0.80;99.90;;;;;;5074276;28;20400;-64
2020/12/27 07:54:05;;;;;;;6.00;4.53;;;0.80;99.90;;;;;;5074560;28;20402;-65
2020/12/27 07:56:32;;;;;;;6.07;5.47;;;0.80;99.90;;;;;;5074282;28;20402;-65
2020/12/27 07:58:59;;;;;;;7.07;5.07;;;1.00;99.90;;;;;;5073576;28;20433;-65
2020/12/27 08:01:33;;;;;;;7.80;5.70;;;1.00;99.90;;;;;;5074109;28;20446;-65
2020/12/27 08:04:00;;;;;;;9.40;6.30;;;0.90;99.90;;;;;;5074033;28;20448;-65
2020/12/27 08:06:28;;;;;;;6.30;5.57;;;1.10;99.90;;;;;;5073882;28;20402;-65
2020/12/27 08:09:04;;;;;;;7.13;5.70;;;1.20;99.90;;;;;;5073581;28;20494;-65
2020/12/27 08:11:31;;;;;;;5.23;4.73;;;1.40;99.90;;;;;;5074223;28;20433;-65
2020/12/27 08:13:59;;;;;;;7.40;4.80;;;1.50;99.90;;;;;;5073581;28;20907;-65
2020/12/27 08:16:25;;;;;;;6.20;5.47;;;1.60;99.90;;;;;;5074194;28;20928;-65
2020/12/27 08:19:07;;;;;;;6.00;5.37;;;1.60;99.90;;;;;;5073880;28;20537;-65
2020/12/27 08:21:34;;;;;;;7.20;5.20;;;1.50;99.90;;;;;;5074025;28;20410;-65
2020/12/27 08:24:05;;;;;;;7.33;5.57;;;1.50;99.90;;;;;;5073545;28;20932;-65
2020/12/27 08:26:37;;;;;;;6.07;5.13;;;1.60;99.90;;;;;;5073904;28;20381;-65
2020/12/27 08:29:23;;;;;;;5.57;4.77;;;1.60;99.90;;;;;;5073026;28;20435;-65
2020/12/27 08:31:53;;;;;;;5.63;4.50;;;1.50;99.90;;;;;;5074030;28;20424;-65
2020/12/27 08:34:20;;;;;;;5.10;4.60;;;1.50;99.90;;;;;;5072711;28;20417;-65
2020/12/27 08:36:56;;;;;;;5.87;4.63;;;1.60;99.90;;;;;;5073734;28;20413;-65
2020/12/27 08:39:43;;;;;;;6.23;5.43;;;1.80;99.90;;;;;;5073461;28;20426;-65
2020/12/27 08:42:14;;;;;;;5.30;4.43;;;1.90;99.90;;;;;;5073752;28;20387;-65
2020/12/27 08:44:47;;;;;;;10.40;8.03;;;1.80;99.90;;;;;;5073667;28;20955;-65
2020/12/27 08:47:58;;;;;;;12.30;8.00;;;1.80;99.90;;;;;;5073561;28;20414;-65
2020/12/27 08:50:40;;;;;;;10.23;7.30;;;1.90;99.90;;;;;;5073593;28;20422;-65
2020/12/27 08:53:09;;;;;;;20.40;10.43;;;1.90;99.90;;;;;;5073299;28;20494;-65
2020/12/27 08:55:36;;;;;;;6.97;5.30;;;2.00;99.90;;;;;;5073272;28;20409;-66
2020/12/27 08:58:03;;;;;;;6.67;5.53;;;1.90;99.90;;;;;;5073626;28;20455;-65
2020/12/27 09:00:32;;;;;;;5.53;4.73;;;2.10;99.90;;;;;;5073120;28;20407;-66
2020/12/27 09:03:02;;;;;;;17.77;15.17;;;2.20;99.90;;;;;;5073004;28;21082;-66
2020/12/27 09:05:35;;;;;;;9.00;6.50;;;2.10;99.90;;;;;;5092615;28;20406;-65
2020/12/27 09:08:12;;;;;;;5.13;4.33;;;1.90;99.90;;;;;;5091932;28;20437;-64
2020/12/27 09:10:39;;;;;;;6.97;4.47;;;1.80;99.90;;;;;;5093838;28;20373;-65
2020/12/27 09:13:13;;;;;;;4.73;4.23;;;1.80;99.90;;;;;;5093327;28;20472;-65
2020/12/27 09:15:45;;;;;;;7.27;4.97;;;1.80;99.90;;;;;;5093120;28;20384;-64
2020/12/27 09:18:27;;;;;;;5.03;4.43;;;1.60;99.90;;;;;;5093224;28;20417;-65
2020/12/27 09:20:58;;;;;;;5.70;4.97;;;1.60;99.90;;;;;;5097532;28;20390;-65
2020/12/27 09:23:24;;;;;;;5.67;5.03;;;1.70;99.90;;;;;;5097701;28;20434;-65
2020/12/27 09:26:04;;;;;;;5.33;4.73;;;1.70;99.90;;;;;;5094495;28;20418;-65
2020/12/27 09:28:31;;;;;;;4.70;4.10;;;1.70;99.90;;;;;;5097225;28;20434;-65
2020/12/27 09:31:01;;;;;;;5.37;4.90;;;1.80;99.90;;;;;;5097218;28;20406;-65
2020/12/27 09:33:35;;;;;;;4.83;4.43;;;2.00;99.90;;;;;;5087190;28;20469;-65
2020/12/27 09:36:01;;;;;;;9.70;5.80;;;2.20;99.90;;;;;;5077208;28;20392;-65
2020/12/27 09:38:29;;;;;;;6.70;5.77;;;2.20;99.90;;;;;;5076354;28;20423;-65
2020/12/27 09:41:02;;;;;;;5.03;4.60;;;2.40;99.90;;;;;;5076937;28;20398;-65
2020/12/27 09:43:27;;;;;;;7.30;5.50;;;2.70;99.90;;;;;;5081457;28;20442;-65
2020/12/27 09:45:53;;;;;;;5.60;4.97;;;2.60;99.90;;;;;;5096747;28;20460;-65
2020/12/27 09:48:18;;;;;;;7.10;5.27;;;2.80;99.90;;;;;;5097009;28;20193;-65
2020/12/27 09:50:44;;;;;;;6.40;4.80;;;2.80;99.90;;;;;;5095821;28;20193;-65
2020/12/27 09:53:18;;;;;;;5.00;4.43;;;2.90;99.90;;;;;;5097040;28;20161;-65
2020/12/27 09:55:43;;;;;;;7.03;5.57;;;3.00;99.90;;;;;;5097197;28;20161;-65
2020/12/27 09:58:12;;;;;;;5.73;5.13;;;3.10;99.90;;;;;;5096849;28;20427;-65
2020/12/27 10:00:37;;;;;;;6.90;5.33;;;3.00;99.90;;;;;;5096512;28;20197;-65
2020/12/27 10:03:03;;;;;;;6.90;5.17;;;3.20;99.90;;;;;;5090169;28;20448;-65
2020/12/27 10:05:29;;;;;;;6.50;4.97;;;3.20;99.90;;;;;;5076272;28;20169;-65
2020/12/27 10:07:55;;;;;;;6.17;5.50;;;3.00;99.90;;;;;;5076546;28;20404;-65
2020/12/27 10:10:20;;;;;;;6.03;4.87;;;2.90;99.90;;;;;;5076455;28;20162;-65
2020/12/27 10:12:46;;;;;;;6.07;5.47;;;3.00;99.90;;;;;;5076561;28;20670;-65
2020/12/27 10:15:11;;;;;;;7.37;5.57;;;3.00;99.90;;;;;;5076172;28;20507;-65
2020/12/27 10:17:38;;;;;;;4.30;3.90;;;3.00;99.90;;;;;;5076212;28;20242;-65
2020/12/27 10:20:10;;;;;;;6.50;5.70;;;3.10;99.90;;;;;;5081476;28;20235;-66
2020/12/27 10:22:35;;;;;;;7.63;5.27;;;3.00;99.90;;;;;;5096645;28;20497;-65
2020/12/27 10:25:01;;;;;;;6.10;5.20;;;3.00;99.90;;;;;;5096302;28;20490;-65
2020/12/27 10:27:32;;;;;;;6.60;5.50;;;3.10;99.90;;;;;;5096271;28;20411;-66
2020/12/27 10:29:59;;;;;;;9.53;5.23;;;3.10;99.90;;;;;;5096466;28;20234;-64
2020/12/27 10:32:24;;;;;;;6.10;5.50;;;2.90;99.90;;;;;;5094592;28;20403;-64
2020/12/27 10:34:50;;;;;;;6.07;5.50;;;2.80;99.90;;;;;;5075663;28;20393;-64
2020/12/27 10:37:15;;;;;;;6.27;5.63;;;2.90;99.90;;;;;;5075840;28;20642;-64
2020/12/27 10:39:41;;;;;;;6.13;5.53;;;3.00;99.90;;;;;;5075715;28;20192;-64
2020/12/27 10:42:06;;;;;;;6.73;5.30;;;3.00;99.90;;;;;;5075627;28;20223;-63
2020/12/27 10:44:32;;;;;;;5.30;4.80;;;2.80;99.90;;;;;;5075344;28;20545;-64
2020/12/27 10:46:58;;;;;;;5.73;5.13;;;2.80;99.90;;;;;;5075591;28;20249;-64
2020/12/27 10:49:24;;;;;;;7.87;5.47;;;2.80;99.90;;;;;;5075427;28;20182;-65
2020/12/27 10:51:50;;;;;;;5.87;5.27;;;2.90;99.90;;;;;;5076142;28;20234;-65
2020/12/27 10:54:16;;;;;;;6.00;5.27;;;3.10;99.90;;;;;;5075754;28;20915;-65
2020/12/27 10:56:43;;;;;;;6.10;5.10;;;3.40;99.90;;;;;;5076094;28;20412;-66
2020/12/27 10:59:09;;;;;;;9.80;6.77;;;3.50;99.90;;;;;;5075440;28;20186;-66
2020/12/27 11:01:35;;;;;;;8.07;6.50;;;3.50;99.90;;;;;;5074396;28;20914;-65
2020/12/27 11:04:01;;;;;;;6.07;5.23;;;3.60;99.90;;;;;;5075855;28;20460;-66
2020/12/27 11:06:30;;;;;;;7.30;6.60;;;3.60;99.90;;;;;;5098066;28;20256;-66
2020/12/27 11:08:57;;;;;;;7.20;6.50;;;3.60;99.90;;;;;;5095436;28;20181;-66
2020/12/27 11:11:22;;;;;;;7.00;6.30;;;3.80;99.90;;;;;;5095534;28;20912;-64
2020/12/27 11:13:48;;;;;;;6.97;6.27;;;3.90;99.90;;;;;;5095222;28;20400;-65
2020/12/27 11:16:14;;;;;;;7.43;6.43;;;3.80;99.90;;;;;;5094927;28;20165;-65
2020/12/27 11:18:39;;;;;;;8.93;7.50;;;3.60;99.90;;;;;;5094662;28;20189;-65
2020/12/27 11:21:05;;;;;;;8.00;7.20;;;3.40;99.90;;;;;;5095223;28;20844;-66
2020/12/27 11:23:30;;;;;;;9.47;7.57;;;3.50;99.90;;;;;;5095609;28;20185;-65
2020/12/27 11:25:56;;;;;;;8.10;7.30;;;3.50;99.90;;;;;;5094023;28;20657;-65
2020/12/27 11:28:21;;;;;;;8.73;7.40;;;3.40;99.90;;;;;;5095121;28;20640;-65
2020/12/27 11:30:47;;;;;;;8.47;7.47;;;3.50;99.90;;;;;;5094801;28;20652;-65
2020/12/27 11:33:13;;;;;;;7.63;6.60;;;3.50;99.90;;;;;;5086977;28;20174;-65
2020/12/27 11:35:38;;;;;;;7.77;7.00;;;3.50;99.90;;;;;;5075031;28;20170;-65
2020/12/27 11:38:04;;;;;;;7.87;7.07;;;3.50;99.90;;;;;;5075550;28;20236;-64
2020/12/27 11:40:29;;;;;;;10.43;7.23;;;3.50;99.90;;;;;;5075856;28;20168;-64
2020/12/27 11:42:55;;;;;;;8.60;7.70;;;3.40;99.90;;;;;;5075302;28;20661;-65
2020/12/27 11:45:20;;;;;;;8.97;8.07;;;3.40;99.90;;;;;;5074991;28;20257;-65
2020/12/27 11:47:46;;;;;;;8.60;7.80;;;3.10;99.90;;;;;;5074520;28;20162;-65
2020/12/27 11:50:12;;;;;;;8.90;7.40;;;3.10;99.90;;;;;;5074908;28;20219;-65
2020/12/27 11:52:37;;;;;;;8.73;7.90;;;3.30;99.90;;;;;;5074426;28;20234;-64
2020/12/27 11:55:03;;;;;;;9.93;8.70;;;3.10;99.90;;;;;;5074349;28;20226;-64
2020/12/27 11:57:29;;;;;;;9.77;8.03;;;2.90;99.90;;;;;;5075097;28;20400;-65
2020/12/27 11:59:54;;;;;;;9.47;8.53;;;3.00;99.90;;;;;;5073221;28;20190;-64
2020/12/27 12:02:20;;;;;;;9.30;7.70;;;3.00;99.90;;;;;;5074574;28;20199;-65
2020/12/27 12:04:45;;;;;;;10.77;9.67;;;3.10;99.90;;;;;;5074378;28;20202;-64
2020/12/27 12:07:11;;;;;;;10.10;8.47;;;3.30;99.90;;;;;;5074467;28;20633;-64
2020/12/27 12:09:36;;;;;;;9.83;8.83;;;3.40;99.90;;;;;;5074759;28;20178;-64
2020/12/27 12:12:02;;;;;;;9.50;8.60;;;3.40;99.90;;;;;;5074256;28;20549;-64
2020/12/27 12:14:28;;;;;;;9.50;8.60;;;3.50;99.90;;;;;;5073474;28;20648;-64
2020/12/27 12:16:54;;;;;;;10.10;8.70;;;3.30;99.90;;;;;;5073881;28;20166;-64
2020/12/27 12:19:20;;;;;;;8.67;7.27;;;3.30;99.90;;;;;;5078616;28;20213;-64
2020/12/27 12:21:50;;;;;;;9.70;8.80;;;3.40;99.90;;;;;;5092462;28;20456;-68
2020/12/27 12:24:16;;;;;;;8.37;7.53;;;3.60;99.90;;;;;;5093825;28;20638;-64
2020/12/27 12:26:41;;;;;;;8.00;7.20;;;3.50;99.90;;;;;;5093531;28;20446;-65
2020/12/27 12:29:07;;;;;;;8.60;7.63;;;3.40;99.90;;;;;;5087566;28;20186;-65
2020/12/27 12:31:33;;;;;;;10.30;9.03;;;3.20;99.90;;;;;;5073729;28;20196;-66
2020/12/27 12:33:58;;;;;;;8.67;7.77;;;3.30;99.90;;;;;;5073811;28;20165;-64
2020/12/27 12:36:25;;;;;;;10.20;8.83;;;3.30;99.90;;;;;;5074210;28;20633;-64
2020/12/27 12:38:51;;;;;;;8.97;8.00;;;3.50;99.90;;;;;;5073248;28;20261;-66
2020/12/27 12:41:26;;;;;;;8.23;7.03;;;3.70;99.90;;;;;;5073611;28;20843;-64
2020/12/27 12:43:52;;;;;;;11.23;9.07;;;3.80;99.90;;;;;;5073872;28;20434;-64
2020/12/27 12:46:18;;;;;;;8.13;7.37;;;3.50;99.90;;;;;;5073207;28;20404;-64
2020/12/27 12:48:45;;;;;;;8.90;8.00;;;3.50;99.90;;;;;;5073481;28;20451;-65
2020/12/27 12:51:11;;;;;;;9.13;7.73;;;3.60;99.90;;;;;;5073574;28;20406;-65
2020/12/27 12:53:37;;;;;;;8.43;7.60;;;3.50;99.90;;;;;;5072858;28;20413;-65
2020/12/27 12:56:03;;;;;;;9.43;7.87;;;3.50;99.90;;;;;;5073707;28;20407;-66
2020/12/27 12:58:28;;;;;;;10.40;6.80;;;3.60;99.90;;;;;;5073727;28;20265;-66
2020/12/27 13:00:54;;;;;;;9.17;7.50;;;3.70;99.90;;;;;;5095860;28;20975;-65